createdAt,value
2018-05-03T00:02:13.391Z,13.00
2018-05-03T00:04:40.939Z,13.00
2018-05-03T00:07:09.214Z,13.10
2018-05-03T00:09:37.518Z,13.10
2018-05-03T00:12:05.034Z,13.00
2018-05-03T00:14:32.587Z,13.10
2018-05-03T00:17:00.164Z,13.10
2018-05-03T00:19:27.707Z,13.10
2018-05-03T00:21:55.229Z,13.00
2018-05-03T00:24:22.886Z,13.00
2018-05-03T00:26:50.436Z,13.00
2018-05-03T00:29:18.899Z,13.10
2018-05-03T00:31:46.417Z,13.00
2018-05-03T00:34:13.935Z,13.00
2018-05-03T00:36:42.243Z,13.00
2018-05-03T00:39:09.766Z,13.00
2018-05-03T00:41:37.302Z,13.00
2018-05-03T00:44:04.828Z,13.00
2018-05-03T00:46:33.170Z,13.00
2018-05-03T00:49:02.203Z,13.00
2018-05-03T00:51:29.749Z,13.00
2018-05-03T00:53:57.304Z,13.00
2018-05-03T00:56:24.852Z,13.00
2018-05-03T00:58:52.376Z,12.90
2018-05-03T01:01:19.922Z,12.90
2018-05-03T01:03:47.434Z,12.90
2018-05-03T01:06:14.974Z,12.80
2018-05-03T01:08:43.299Z,12.80
2018-05-03T01:11:10.856Z,12.80
2018-05-03T01:13:38.392Z,12.80
2018-05-03T01:16:05.949Z,12.70
2018-05-03T01:18:33.586Z,12.70
2018-05-03T01:21:01.119Z,12.70
2018-05-03T01:23:28.640Z,12.70
2018-05-03T01:25:56.192Z,12.70
2018-05-03T01:28:23.736Z,12.70
2018-05-03T01:30:51.279Z,12.60
2018-05-03T01:33:18.838Z,12.60
2018-05-03T01:35:58.448Z,12.50
2018-05-03T01:38:25.961Z,12.60
2018-05-03T01:40:54.268Z,12.40
2018-05-03T01:43:21.791Z,12.40
2018-05-03T01:45:49.334Z,12.50
2018-05-03T01:48:16.856Z,12.50
2018-05-03T01:50:45.159Z,12.50
2018-05-03T01:53:12.679Z,12.50
2018-05-03T01:55:40.236Z,12.50
2018-05-03T01:58:07.745Z,12.50
2018-05-03T02:00:36.084Z,12.50
2018-05-03T02:03:03.648Z,12.50
2018-05-03T02:05:31.939Z,12.60
2018-05-03T02:07:59.476Z,12.50
2018-05-03T02:10:27.158Z,12.50
2018-05-03T02:12:54.701Z,12.50
2018-05-03T02:15:22.217Z,12.50
2018-05-03T02:17:49.787Z,12.40
2018-05-03T02:20:17.320Z,12.40
2018-05-03T02:22:44.871Z,12.40
2018-05-03T02:25:12.382Z,12.40
2018-05-03T02:27:40.682Z,12.40
2018-05-03T02:30:08.200Z,12.40
2018-05-03T02:32:35.756Z,12.40
2018-05-03T02:35:03.271Z,12.40
2018-05-03T02:37:31.583Z,12.30
2018-05-03T02:39:59.121Z,12.30
2018-05-03T02:42:27.217Z,12.30
2018-05-03T02:44:54.734Z,12.30
2018-05-03T02:47:22.271Z,12.30
2018-05-03T02:49:49.783Z,12.20
2018-05-03T02:52:17.337Z,12.20
2018-05-03T02:54:44.866Z,12.20
2018-05-03T02:57:24.206Z,12.20
2018-05-03T03:00:03.643Z,12.20
2018-05-03T03:06:08.826Z,12.20
2018-05-03T03:09:07.443Z,12.10
2018-05-03T03:15:00.354Z,12.10
2018-05-03T03:17:45.714Z,12.20
2018-05-03T03:23:41.827Z,12.10
2018-05-03T03:29:37.105Z,12.10
2018-05-03T03:32:16.466Z,12.10
2018-05-03T03:34:43.985Z,12.00
2018-05-03T03:37:32.210Z,11.90
2018-05-03T03:40:17.449Z,11.90
2018-05-03T03:45:44.617Z,11.70
2018-05-03T03:48:12.183Z,11.60
2018-05-03T03:50:39.720Z,11.60
2018-05-03T03:53:07.313Z,11.60
2018-05-03T03:55:35.621Z,11.60
2018-05-03T03:58:03.182Z,11.60
2018-05-03T04:00:30.731Z,11.60
2018-05-03T04:02:58.280Z,11.60
2018-05-03T04:05:25.803Z,11.70
2018-05-03T04:07:53.346Z,11.70
2018-05-03T04:10:20.866Z,11.80
2018-05-03T04:12:48.422Z,11.90
2018-05-03T04:15:15.946Z,11.90
2018-05-03T04:17:55.503Z,12.00
2018-05-03T04:20:39.777Z,12.00
2018-05-03T04:23:20.050Z,12.10
2018-05-03T04:25:57.415Z,12.10
2018-05-03T04:28:24.958Z,12.20
2018-05-03T04:30:52.557Z,12.20
2018-05-03T04:33:20.115Z,12.20
2018-05-03T04:35:47.630Z,12.30
2018-05-03T04:38:15.144Z,12.40
2018-05-03T04:40:42.708Z,12.50
2018-05-03T04:43:10.238Z,12.60
2018-05-03T04:45:37.787Z,12.70
2018-05-03T04:48:05.343Z,12.70
2018-05-03T04:50:32.881Z,12.80
2018-05-03T04:53:00.407Z,12.80
2018-05-03T04:55:27.949Z,12.90
2018-05-03T04:57:55.488Z,12.90
2018-05-03T05:00:24.208Z,12.90
2018-05-03T05:02:51.821Z,12.90
2018-05-03T05:05:19.379Z,13.00
2018-05-03T05:07:46.890Z,13.00
2018-05-03T05:10:15.211Z,13.10
2018-05-03T05:12:42.739Z,13.10
2018-05-03T05:15:10.283Z,13.30
2018-05-03T05:17:37.850Z,13.30
2018-05-03T05:20:05.398Z,13.30
2018-05-03T05:22:32.926Z,13.40
2018-05-03T05:25:00.466Z,13.50
2018-05-03T05:27:28.003Z,13.40
2018-05-03T05:29:55.547Z,13.30
2018-05-03T05:32:23.073Z,13.30
2018-05-03T05:34:50.769Z,13.30
2018-05-03T05:37:19.071Z,13.20
2018-05-03T05:39:46.610Z,13.10
2018-05-03T05:42:14.890Z,13.20
2018-05-03T05:44:42.443Z,13.20
2018-05-03T05:47:09.970Z,13.30
2018-05-03T05:49:37.542Z,13.30
2018-05-03T05:52:05.065Z,13.30
2018-05-03T05:54:32.610Z,13.30
2018-05-03T05:57:00.137Z,13.40
2018-05-03T05:59:28.454Z,13.70
2018-05-03T06:01:55.988Z,13.70
2018-05-03T06:04:23.531Z,13.80
2018-05-03T06:06:51.076Z,14.00
2018-05-03T06:09:18.599Z,14.10
2018-05-03T06:11:46.157Z,14.10
2018-05-03T06:14:13.713Z,14.20
2018-05-03T06:16:41.268Z,14.30
2018-05-03T06:19:08.895Z,14.20
2018-05-03T06:21:36.437Z,14.10
2018-05-03T06:24:03.952Z,14.00
2018-05-03T06:26:31.626Z,14.10
2018-05-03T06:28:59.143Z,14.20
2018-05-03T06:31:27.914Z,14.30
2018-05-03T06:33:55.456Z,14.30
2018-05-03T06:36:23.048Z,14.30
2018-05-03T06:38:50.574Z,14.40
2018-05-03T06:41:18.120Z,14.60
2018-05-03T06:43:45.644Z,14.70
2018-05-03T06:46:13.946Z,15.20
2018-05-03T06:48:41.464Z,15.20
2018-05-03T06:51:09.032Z,15.20
2018-05-03T06:53:36.551Z,15.30
2018-05-03T06:56:04.123Z,15.20
2018-05-03T06:58:31.683Z,15.00
2018-05-03T07:00:59.196Z,14.80
2018-05-03T07:03:26.733Z,14.80
2018-05-03T07:05:54.489Z,14.70
2018-05-03T07:08:22.822Z,14.70
2018-05-03T07:10:50.688Z,14.60
2018-05-03T07:13:18.427Z,14.60
2018-05-03T07:15:46.001Z,14.60
2018-05-03T07:18:13.523Z,14.50
2018-05-03T07:20:41.115Z,14.60
2018-05-03T07:23:08.730Z,14.70
2018-05-03T07:25:36.270Z,14.90
2018-05-03T07:28:03.811Z,15.20
2018-05-03T07:30:31.472Z,15.30
2018-05-03T07:32:58.995Z,15.30
2018-05-03T07:35:26.542Z,15.20
2018-05-03T07:37:54.076Z,15.10
2018-05-03T07:40:21.618Z,15.20
2018-05-03T07:42:49.190Z,15.30
2018-05-03T07:45:16.737Z,15.30
2018-05-03T07:47:44.422Z,15.40
2018-05-03T07:50:12.746Z,15.70
2018-05-03T07:52:40.388Z,15.70
2018-05-03T07:55:07.902Z,15.70
2018-05-03T07:57:35.441Z,15.80
2018-05-03T08:00:02.963Z,15.80
2018-05-03T08:02:30.513Z,15.90
2018-05-03T08:04:59.167Z,15.90
2018-05-03T08:07:26.812Z,15.90
2018-05-03T08:09:54.344Z,15.80
2018-05-03T08:12:21.892Z,16.10
2018-05-03T08:14:49.680Z,16.30
2018-05-03T08:17:17.992Z,16.40
2018-05-03T08:19:45.563Z,16.30
2018-05-03T08:22:13.102Z,16.40
2018-05-03T08:24:41.387Z,16.20
2018-05-03T08:27:09.710Z,16.00
2018-05-03T08:29:37.233Z,16.00
2018-05-03T08:32:04.830Z,16.00
2018-05-03T08:34:33.110Z,15.80
2018-05-03T08:37:01.422Z,15.90
2018-05-03T08:39:28.943Z,15.90
2018-05-03T08:41:56.479Z,16.00
2018-05-03T08:44:23.995Z,16.10
2018-05-03T08:46:52.346Z,16.40
2018-05-03T08:49:19.870Z,16.40
2018-05-03T08:51:47.426Z,16.40
2018-05-03T08:54:15.711Z,16.40
2018-05-03T08:56:44.082Z,16.60
2018-05-03T08:59:11.611Z,16.60
2018-05-03T09:01:39.987Z,16.90
2018-05-03T09:04:07.469Z,16.80
2018-05-03T09:06:35.115Z,17.00
2018-05-03T09:09:02.659Z,17.10
2018-05-03T09:11:30.203Z,17.10
2018-05-03T09:13:57.738Z,17.10
2018-05-03T09:16:25.277Z,17.20
2018-05-03T09:18:52.811Z,17.30
2018-05-03T09:21:20.362Z,17.50
2018-05-03T09:23:47.988Z,17.60
2018-05-03T09:26:16.294Z,17.80
2018-05-03T09:28:44.019Z,17.80
2018-05-03T09:31:11.572Z,17.70
2018-05-03T09:33:39.151Z,17.60
2018-05-03T09:36:07.431Z,17.50
2018-05-03T09:38:35.753Z,17.50
2018-05-03T09:41:03.439Z,17.50
2018-05-03T09:43:30.994Z,17.60
2018-05-03T09:45:59.269Z,17.80
2018-05-03T09:48:26.818Z,17.80
2018-05-03T09:50:54.362Z,17.80
2018-05-03T09:53:21.946Z,17.80
2018-05-03T09:55:49.485Z,17.90
2018-05-03T09:58:17.026Z,18.00
2018-05-03T10:00:44.562Z,18.10
2018-05-03T10:03:12.110Z,18.20
2018-05-03T10:05:40.071Z,18.30
2018-05-03T10:08:07.652Z,18.10
2018-05-03T10:10:35.191Z,18.20
2018-05-03T10:13:02.734Z,18.30
2018-05-03T10:15:30.246Z,18.40
2018-05-03T10:17:57.788Z,18.60
2018-05-03T10:20:25.338Z,18.70
2018-05-03T10:22:52.898Z,18.90
2018-05-03T10:25:21.135Z,19.20
2018-05-03T10:27:48.683Z,19.30
2018-05-03T10:30:16.371Z,19.50
2018-05-03T10:32:43.914Z,19.50
2018-05-03T10:35:11.554Z,19.30
2018-05-03T10:37:39.966Z,19.00
2018-05-03T10:40:07.490Z,19.00
2018-05-03T10:42:35.798Z,19.00
2018-05-03T10:45:03.324Z,19.00
2018-05-03T10:47:30.869Z,19.00
2018-05-03T10:49:58.393Z,18.90
2018-05-03T10:52:26.143Z,18.90
2018-05-03T10:54:53.670Z,19.00
2018-05-03T10:57:21.982Z,19.40
2018-05-03T10:59:49.542Z,19.40
2018-05-03T11:02:17.091Z,19.40
2018-05-03T11:04:44.612Z,19.30
2018-05-03T11:07:12.146Z,19.30
2018-05-03T11:09:39.704Z,19.20
2018-05-03T11:12:07.269Z,19.00
2018-05-03T11:14:35.711Z,19.20
2018-05-03T11:17:03.256Z,19.20
2018-05-03T11:19:30.798Z,19.50
2018-05-03T11:21:58.348Z,19.80
2018-05-03T11:24:25.904Z,19.60
2018-05-03T11:26:53.540Z,19.70
2018-05-03T11:29:21.096Z,19.80
2018-05-03T11:31:48.614Z,19.80
2018-05-03T11:34:16.181Z,20.00
2018-05-03T11:36:43.761Z,20.10
2018-05-03T11:39:11.329Z,20.40
2018-05-03T11:41:38.856Z,20.80
2018-05-03T11:44:07.220Z,21.20
2018-05-03T11:46:36.061Z,21.50
2018-05-03T11:49:03.616Z,21.50
2018-05-03T11:51:31.179Z,21.70
2018-05-03T11:53:59.604Z,21.10
2018-05-03T11:56:27.123Z,21.10
2018-05-03T11:58:54.713Z,21.00
2018-05-03T12:01:22.333Z,20.90
2018-05-03T12:03:50.082Z,20.80
2018-05-03T12:06:17.653Z,21.00
2018-05-03T12:08:45.197Z,20.90
2018-05-03T12:11:12.715Z,20.90
2018-05-03T12:13:40.334Z,20.60
2018-05-03T12:16:08.810Z,20.90
2018-05-03T12:18:36.384Z,21.10
2018-05-03T12:21:03.948Z,21.10
2018-05-03T12:23:31.490Z,20.90
2018-05-03T12:25:59.030Z,20.60
2018-05-03T12:28:27.373Z,20.70
2018-05-03T12:30:54.910Z,20.60
2018-05-03T12:33:22.465Z,20.50
2018-05-03T12:35:50.205Z,20.10
2018-05-03T12:38:17.851Z,20.10
2018-05-03T12:40:45.425Z,20.30
2018-05-03T12:43:12.954Z,20.40
2018-05-03T12:45:40.512Z,20.40
2018-05-03T12:48:08.031Z,20.30
2018-05-03T12:50:36.558Z,20.30
2018-05-03T12:53:04.334Z,20.40
2018-05-03T12:55:31.890Z,20.60
2018-05-03T12:57:59.404Z,20.60
2018-05-03T13:00:26.943Z,20.60
2018-05-03T13:02:55.323Z,20.40
2018-05-03T13:05:22.857Z,20.40
2018-05-03T13:07:50.385Z,20.40
2018-05-03T13:10:18.698Z,20.10
2018-05-03T13:12:46.241Z,20.10
2018-05-03T13:15:13.790Z,20.20
2018-05-03T13:17:41.353Z,20.00
2018-05-03T13:20:09.067Z,19.90
2018-05-03T13:22:37.463Z,20.00
2018-05-03T13:25:05.057Z,19.90
2018-05-03T13:27:32.591Z,19.90
2018-05-03T13:30:00.159Z,20.00
2018-05-03T13:32:27.677Z,19.80
2018-05-03T13:34:56.346Z,20.00
2018-05-03T13:37:24.689Z,19.90
2018-05-03T13:39:52.294Z,19.80
2018-05-03T13:42:19.832Z,19.90
2018-05-03T13:44:47.462Z,19.90
2018-05-03T13:47:15.060Z,19.90
2018-05-03T13:49:43.168Z,20.00
2018-05-03T13:52:16.418Z,20.20
2018-05-03T13:54:44.731Z,20.10
2018-05-03T13:57:12.266Z,20.10
2018-05-03T13:59:39.884Z,20.20
2018-05-03T14:02:07.445Z,20.10
2018-05-03T14:04:35.009Z,20.10
2018-05-03T14:07:02.587Z,20.10
2018-05-03T14:09:30.119Z,20.10
2018-05-03T14:11:57.749Z,19.80
2018-05-03T14:14:25.304Z,19.70
2018-05-03T14:16:52.864Z,19.80
2018-05-03T14:19:20.502Z,20.00
2018-05-03T14:21:47.979Z,20.10
2018-05-03T14:24:16.264Z,20.20
2018-05-03T14:26:43.831Z,20.20
2018-05-03T14:29:11.913Z,20.10
2018-05-03T14:31:39.538Z,19.80
2018-05-03T14:34:07.080Z,19.90
2018-05-03T14:36:34.628Z,19.70
2018-05-03T14:39:02.166Z,19.90
2018-05-03T14:41:29.712Z,19.90
2018-05-03T14:43:57.249Z,19.80
2018-05-03T14:46:24.831Z,20.00
2018-05-03T14:48:52.378Z,20.20
2018-05-03T14:51:19.920Z,20.40
2018-05-03T14:53:47.453Z,20.50
2018-05-03T14:56:14.986Z,20.60
2018-05-03T14:58:42.502Z,20.70
2018-05-03T15:01:10.144Z,20.90
2018-05-03T15:03:37.668Z,21.10
2018-05-03T15:06:06.023Z,20.90
2018-05-03T15:08:34.445Z,20.60
2018-05-03T15:11:02.774Z,20.40
2018-05-03T15:13:30.295Z,20.30
2018-05-03T15:15:58.638Z,19.80
2018-05-03T15:18:26.198Z,19.70
2018-05-03T15:20:53.734Z,20.00
2018-05-03T15:23:21.247Z,20.10
2018-05-03T15:25:48.801Z,20.30
2018-05-03T15:28:16.344Z,20.30
2018-05-03T15:30:43.894Z,20.20
2018-05-03T15:33:11.582Z,20.50
2018-05-03T15:35:39.169Z,20.40
2018-05-03T15:38:06.690Z,20.90
2018-05-03T15:40:34.255Z,21.30
2018-05-03T15:43:01.819Z,21.80
2018-05-03T15:45:29.347Z,22.00
2018-05-03T15:47:57.000Z,22.10
2018-05-03T15:50:24.532Z,22.50
2018-05-03T15:52:52.096Z,22.70
2018-05-03T15:55:19.673Z,22.80
2018-05-03T15:57:47.992Z,22.90
2018-05-03T16:00:15.519Z,22.90
2018-05-03T16:02:43.063Z,24.10
2018-05-03T16:05:10.594Z,25.30
2018-05-03T16:07:38.225Z,25.00
2018-05-03T16:10:05.764Z,23.90
2018-05-03T16:12:34.072Z,23.60
2018-05-03T16:15:01.602Z,23.60
2018-05-03T16:17:29.174Z,24.50
2018-05-03T16:19:56.697Z,25.00
2018-05-03T16:22:24.432Z,25.80
2018-05-03T16:24:51.948Z,25.90
2018-05-03T16:27:20.250Z,25.10
2018-05-03T16:29:47.758Z,25.10
2018-05-03T16:32:15.301Z,26.00
2018-05-03T16:34:43.648Z,26.10
2018-05-03T16:37:11.345Z,26.00
2018-05-03T16:39:40.452Z,24.90
2018-05-03T16:42:08.009Z,24.90
2018-05-03T16:44:35.525Z,24.80
2018-05-03T16:47:03.110Z,24.00
2018-05-03T16:49:30.626Z,25.20
2018-05-03T16:51:58.166Z,26.30
2018-05-03T16:54:25.691Z,25.60
2018-05-03T16:56:53.244Z,25.60
2018-05-03T16:59:20.802Z,25.50
2018-05-03T17:01:48.322Z,25.70
2018-05-03T17:04:15.833Z,26.30
2018-05-03T17:06:44.137Z,25.70
2018-05-03T17:09:11.914Z,25.70
2018-05-03T17:11:39.482Z,26.20
2018-05-03T17:14:09.025Z,26.60
2018-05-03T17:16:36.494Z,26.60
2018-05-03T17:19:04.062Z,25.80
2018-05-03T17:21:31.660Z,26.00
2018-05-03T17:23:59.204Z,25.70
2018-05-03T17:26:26.802Z,25.30
2018-05-03T17:28:55.109Z,24.10
2018-05-03T17:31:22.629Z,24.10
2018-05-03T17:33:50.210Z,23.90
2018-05-03T17:36:17.768Z,24.40
2018-05-03T17:38:45.308Z,24.70
2018-05-03T17:41:12.839Z,24.40
2018-05-03T17:43:40.394Z,23.90
2018-05-03T17:46:08.033Z,23.90
2018-05-03T17:48:35.597Z,23.70
2018-05-03T17:51:03.121Z,23.10
2018-05-03T17:53:30.682Z,21.90
2018-05-03T17:55:58.212Z,21.10
2018-05-03T17:58:25.770Z,20.30
2018-05-03T18:00:53.282Z,20.40
2018-05-03T18:03:20.818Z,20.10
2018-05-03T18:05:48.339Z,19.90
2018-05-03T18:08:16.646Z,19.40
2018-05-03T18:10:44.240Z,19.40
2018-05-03T18:13:11.840Z,18.70
2018-05-03T18:15:39.362Z,17.70
2018-05-03T18:18:06.907Z,16.90
2018-05-03T18:20:34.437Z,16.30
2018-05-03T18:23:02.028Z,16.00
2018-05-03T18:25:29.698Z,15.60
2018-05-03T18:27:57.257Z,15.40
2018-05-03T18:30:24.814Z,15.20
2018-05-03T18:32:53.187Z,14.90
2018-05-03T18:35:20.787Z,14.90
2018-05-03T18:37:48.306Z,14.70
2018-05-03T18:40:15.952Z,14.60
2018-05-03T18:42:43.478Z,14.50
2018-05-03T18:45:11.031Z,14.30
2018-05-03T18:47:38.805Z,14.30
2018-05-03T18:50:06.359Z,14.20
2018-05-03T18:52:33.875Z,14.10
2018-05-03T18:55:01.530Z,14.00
2018-05-03T18:57:29.042Z,13.90
2018-05-03T18:59:56.616Z,13.80
2018-05-03T19:02:24.161Z,13.70
2018-05-03T19:04:51.982Z,13.60
2018-05-03T19:07:19.511Z,13.60
2018-05-03T19:09:47.819Z,13.50
2018-05-03T19:12:15.366Z,13.40
2018-05-03T19:14:42.948Z,13.40
2018-05-03T19:17:10.495Z,13.40
2018-05-03T19:19:38.802Z,13.30
2018-05-03T19:22:06.317Z,13.20
2018-05-03T19:24:33.907Z,13.20
2018-05-03T19:27:02.195Z,13.10
2018-05-03T19:29:29.842Z,13.10
2018-05-03T19:31:57.372Z,13.00
2018-05-03T19:34:24.922Z,12.90
2018-05-03T19:36:52.518Z,12.80
2018-05-03T19:39:20.064Z,12.80
2018-05-03T19:41:47.636Z,12.70
2018-05-03T19:44:15.192Z,12.70
2018-05-03T19:46:42.828Z,12.70
2018-05-03T19:49:10.380Z,12.60
2018-05-03T19:51:38.015Z,12.50
2018-05-03T19:54:05.534Z,12.50
2018-05-03T19:56:33.178Z,12.50
2018-05-03T19:59:00.744Z,12.40
2018-05-03T20:01:28.297Z,12.40
2018-05-03T20:03:55.872Z,12.30
2018-05-03T20:06:23.451Z,12.30
2018-05-03T20:08:50.971Z,12.20
2018-05-03T20:11:18.646Z,12.20
2018-05-03T20:13:47.118Z,12.20
2018-05-03T20:16:15.576Z,12.10
2018-05-03T20:18:43.181Z,12.10
2018-05-03T20:21:10.744Z,12.00
2018-05-03T20:23:39.035Z,11.90
2018-05-03T20:26:06.603Z,11.90
2018-05-03T20:28:34.199Z,11.90
2018-05-03T20:31:02.513Z,11.80
2018-05-03T20:33:30.671Z,11.80
2018-05-03T20:35:58.229Z,11.80
2018-05-03T20:38:25.775Z,11.80
2018-05-03T20:40:53.322Z,11.70
2018-05-03T20:43:20.855Z,11.70
2018-05-03T20:45:48.517Z,11.60
2018-05-03T20:48:16.041Z,11.50
2018-05-03T20:50:43.601Z,11.50
2018-05-03T20:53:11.121Z,11.40
2018-05-03T20:55:39.236Z,11.40
2018-05-03T20:58:07.203Z,11.40
2018-05-03T21:00:34.747Z,11.40
2018-05-03T21:03:02.270Z,11.30
2018-05-03T21:05:29.864Z,11.30
2018-05-03T21:07:57.382Z,11.20
2018-05-03T21:10:24.970Z,11.20
2018-05-03T21:12:52.524Z,11.20
2018-05-03T21:15:20.034Z,11.10
2018-05-03T21:17:49.338Z,11.00
2018-05-03T21:20:16.859Z,11.00
2018-05-03T21:22:44.423Z,11.10
2018-05-03T21:25:11.979Z,11.10
2018-05-03T21:27:39.532Z,11.00
2018-05-03T21:30:07.050Z,11.00
2018-05-03T21:32:34.587Z,11.00
2018-05-03T21:35:02.113Z,10.90
2018-05-03T21:37:29.689Z,10.90
2018-05-03T21:39:57.203Z,10.80
2018-05-03T21:42:24.745Z,10.80
2018-05-03T21:44:52.318Z,10.80
2018-05-03T21:47:19.854Z,10.70
2018-05-03T21:49:48.294Z,10.70
2018-05-03T21:52:16.613Z,10.60
2018-05-03T21:54:44.152Z,10.60
2018-05-03T21:57:11.698Z,10.60
2018-05-03T21:59:39.224Z,10.60
2018-05-03T22:02:06.766Z,10.50
2018-05-03T22:04:34.278Z,10.50
2018-05-03T22:07:01.822Z,10.40
2018-05-03T22:09:30.101Z,10.50
2018-05-03T22:11:57.701Z,10.50
2018-05-03T22:14:26.003Z,10.40
2018-05-03T22:16:53.534Z,10.40
2018-05-03T22:19:21.825Z,10.30
2018-05-03T22:21:49.428Z,10.20
2018-05-03T22:24:17.715Z,10.20
2018-05-03T22:26:45.256Z,10.20
2018-05-03T22:29:12.790Z,10.10
2018-05-03T22:31:41.082Z,10.20
2018-05-03T22:34:08.621Z,10.20
2018-05-03T22:36:36.146Z,10.20
2018-05-03T22:39:03.687Z,10.10
2018-05-03T22:41:31.963Z,10.10
2018-05-03T22:43:59.506Z,10.10
2018-05-03T22:46:27.022Z,10.10
2018-05-03T22:48:55.352Z,10.10
2018-05-03T22:51:22.902Z,10.10
2018-05-03T22:53:50.479Z,10.00
2018-05-03T22:56:18.772Z,9.90
2018-05-03T22:58:46.310Z,9.90
2018-05-03T23:01:13.985Z,9.90
2018-05-03T23:03:41.527Z,9.80
2018-05-03T23:06:09.043Z,9.80
2018-05-03T23:08:36.580Z,9.80
2018-05-03T23:11:04.091Z,9.80
2018-05-03T23:13:31.639Z,9.80
2018-05-03T23:15:59.165Z,9.70
2018-05-03T23:18:28.329Z,9.60
2018-05-03T23:20:55.847Z,9.60
2018-05-03T23:23:23.393Z,9.60
2018-05-03T23:25:51.839Z,9.50
2018-05-03T23:28:19.530Z,9.50
2018-05-03T23:30:47.199Z,9.30
2018-05-03T23:33:14.751Z,9.30
2018-05-03T23:35:42.272Z,9.30
2018-05-03T23:38:09.828Z,9.20
2018-05-03T23:40:37.347Z,9.10
2018-05-03T23:43:04.890Z,9.10
2018-05-03T23:45:32.414Z,9.00
2018-05-03T23:47:59.952Z,9.00
2018-05-03T23:50:27.868Z,9.10
2018-05-03T23:52:55.427Z,9.10
2018-05-03T23:55:23.757Z,9.20
2018-05-03T23:57:52.193Z,9.20
